Sioux Lookout Airport
CYXL : now visible

Airfield :











YOU CAN JOIN US ON...

 
LOGIN :

Register | Disclaimer

   EN    FR    IT 

 









Legend :    VFR   Marginal VFR   IFR   Intensive IFR   Very Intensive IFR
Visi :
Ceiling :
>= 8 km
>= 3000ft
5 to 8 km
1000 to 3000 ft
1500m to 5 km
500 to 1000 ft
800 to 1500m
200 to 500 ft
< 800m
< 200 ft
Symbols :   Thunderstorms  Fog  Heavy snow  Heavy precipitations  Wind > 20 kt






- Airport Elevation : 1258 ft
- IATA code : YXL


CYXL - Sioux Lookout

CURRENT METAR :
  • 211600Z VRB02KT 2 1/2SM -SN BKN008 OVC012 M01/M02 A2994 RMK SN3SF2SC3 SLP163

EXPIRED METARs :
  • 211500Z VRB02KT 2 1/2SM -SN SCT007 OVC018 M01/M02 A2994 RMK SN3SF3SC2 SLP160
  • 211400Z 09002KT 2 1/2SM -SN FEW006 BKN015 OVC030 M02/M03 A2993 RMK SF2SF4SC2 SLP158

TAF TAF CYXL
Valid from the 21 at 14:00 until the 22 at 02:00 UTC


211338Z 2114/2202 08005KT 2SM -SN BKN008 OVC030
TEMPO 2114/2119 6SM -SN SCT008 OVC030
FM211900 28005KT P6SM SCT015 OVC030
TEMPO 2119/2202 4SM -SHSN BKN015 OVC030
PROB30 2119/2202 2SM -SHSN RMK NXT FCST BY 212000Z
CZWG FIR / North America



MET'MAP, your aeronautical weather chart ! - Copyright ORBIFLY December 2007 - Disclaimer

ORBIFLY MET'MAP TEAM :

Programming & Development : Alexandra Zaïnal
Concept & original design : Baudouin d'Aumeries
Assistance for programming : Marc-Olivier Méhu
Technical & hardware support : Manuel Goepfert

Contact : metmap@orbifly.com




SOURCES & CREDITS :

   NOAA       Earth
Advisory